Buoy 46535

sailwx.info

Track history (hours):
 
Tides and Currents Weather Stations Pressure Air Temp Water Temp Dewpoint Dewpoint Depression Visibility Wind Speed Wind Dir Waves Ship Positions

Drifting buoy 46535

Last reported at 2015-Mar-27 16:50 UTC. Time now 2015-Mar-27 19:08 UTC.
Position N 55°04' W 171°01'.

Barometer 990.4 mb
Water temperature 4.3 ° C

Date/timePositionNaut miles runAvg speedWind from/ knotsBaromVisibWave heightAir tempDewpointWater temp
2015-Mar-27 16:50N 55°04' W 171°01'1 0.6 990.4 4.3
2015-Mar-27 15:50N 55°05' W 170°60'1 1.5 990.4 4.3
2015-Mar-27 14:50N 55°06' W 170°57'0 0.0 990.5 4.4
2015-Mar-27 13:50N 55°06' W 170°57'0 0.0 990.5 4.4
2015-Mar-27 12:50N 55°06' W 170°58'4 1.8 990.8 4.4
2015-Mar-27 10:50N 55°08' W 170°54'2 0.5 991.4 4.4
2015-Mar-27 06:50N 55°10' W 170°53'2 0.7 992.4 4.4
2015-Mar-27 03:50N 55°12' W 170°50'0 0.2 992.9 4.4
2015-Mar-27 02:50N 55°12' W 170°49'1 0.7 993.2 4.4
2015-Mar-27 01:50N 55°12' W 170°48'3 1.5 993.5 4.4
2015-Mar-26 23:50N 55°14' W 170°45'4 0.7 994.4 4.4
2015-Mar-26 17:50N 55°17' W 170°39'1 0.6 996.1 4.3
2015-Mar-26 16:50N 55°17' W 170°38'1 0.3 996.1 4.3
2015-Mar-26 14:50N 55°18' W 170°38'6 0.6 996.6 4.3
2015-Mar-26 04:50N 55°22' W 170°31'1 0.4 998.3 4.3
2015-Mar-26 02:50N 55°22' W 170°30'3 0.6 998.2 4.2
2015-Mar-25 22:00N 55°24' W 170°26'1 0.4 998.6 4.2
2015-Mar-25 19:50N 55°24' W 170°24'0 0.0 998.5 4.2
2015-Mar-25 18:50N 55°24' W 170°24'0 0.4 998.6 4.2
2015-Mar-25 17:50N 55°24' W 170°24'1 0.4 998.7 4.2
2015-Mar-25 15:50N 55°25' W 170°23'1 1.2 998.7 4.2
2015-Mar-25 14:50N 55°24' W 170°21'2 0.5 998.8 4.2
2015-Mar-25 10:50N 55°24' W 170°18'2 0.5 999.6 4.3
2015-Mar-25 06:50N 55°25' W 170°14'1 1.0 1000.4 4.4
2015-Mar-25 05:50N 55°25' W 170°13'1 0.3 1000.4 4.4
2015-Mar-25 02:50N 55°25' W 170°12'0 0.4 1000.7 4.4
2015-Mar-25 01:50N 55°25' W 170°11'0 0.2 1000.9 4.4
2015-Mar-25 00:50N 55°25' W 170°11'4 1.4 1000.9 4.4
2015-Mar-24 22:00N 55°23' W 170°05'0 0.0 1000.8 4.4
2015-Mar-24 19:50N 55°23' W 170°05'0 0.2 1000.5 4.5
2015-Mar-24 17:50N 55°23' W 170°04'1 0.8 1000.2 4.6
2015-Mar-24 16:50N 55°23' W 170°03'0 0.4 1000.1 4.6
2015-Mar-24 15:50N 55°22' W 170°02'0 0.4 1000.1 4.6
2015-Mar-24 14:50N 55°22' W 170°02'0 0.0 1000.4 4.6
2015-Mar-24 13:50N 55°22' W 170°02'4 0.4 1000.6 4.6
2015-Mar-24 03:50N 55°18' W 169°59'0 0.4 1002.4 4.6
2015-Mar-24 02:50N 55°18' W 169°58'2 0.5 1002.7 4.5
2015-Mar-23 23:50N 55°17' W 169°57'3 0.6 1003.5 4.4
2015-Mar-23 19:50N 55°15' W 169°54'0 0.0 1006.0 4.4
2015-Mar-23 18:50N 55°15' W 169°54'2 0.4 1006.5 4.4
2015-Mar-23 14:50N 55°14' W 169°53'0 0.5 1007.8 4.2
2015-Mar-23 13:50N 55°13' W 169°53'1 1.2 1008.4 4.2
2015-Mar-23 12:50N 55°12' W 169°53'4 0.6 1009.1 4.1
2015-Mar-23 04:50N 55°08' W 169°50'0 0.4 1009.8 4.3
2015-Mar-23 03:50N 55°08' W 169°50'0 0.2 1009.9 4.2
2015-Mar-23 02:50N 55°08' W 169°49'3 0.9 1010.1 4.2
2015-Mar-22 23:50N 55°05' W 169°49'0 0.0 1010.5 4.1
2015-Mar-22 21:50N 55°05' W 169°49'3 0.7 1010.6 4.0
2015-Mar-22 16:50N 55°02' W 169°48'1 0.9 1009.7 4.0
2015-Mar-22 15:50N 55°01' W 169°47'3 0.4 1009.5 4.0
2015-Mar-22 07:50N 54°58' W 169°48'3 0.9 1007.7 4.0
2015-Mar-22 04:50N 54°55' W 169°47'0 0.0 1006.6 4.0
2015-Mar-22 03:50N 54°55' W 169°47'0 0.5 1006.5 4.0
2015-Mar-22 02:50N 54°55' W 169°46'0 0.0 1006.2 4.0
2015-Mar-22 01:50N 54°55' W 169°46'1 0.3 1005.9 4.0
2015-Mar-21 23:50N 54°54' W 169°47'0 0.1 1005.7 4.0
2015-Mar-21 20:50N 54°54' W 169°47'2 0.4 1005.4 4.0
2015-Mar-21 15:50N 54°52' W 169°48'1 0.2 1004.1 4.0
2015-Mar-21 12:50N 54°52' W 169°47'2 0.2 1003.7 4.0
2015-Mar-21 01:50N 54°49' W 169°47'1 0.7 1002.4 4.0
2015-Mar-21 00:50N 54°49' W 169°48'1 0.8 1002.4 4.0
2015-Mar-20 23:50N 54°48' W 169°47'1 0.4 1002.5 4.0
2015-Mar-20 20:50N 54°47' W 169°47'0 0.1 1002.7 4.0
2015-Mar-20 15:50N 54°46' W 169°47'1 0.6 1001.5 4.0
2015-Mar-20 13:50N 54°46' W 169°49'0 0.4 1001.3 4.0
2015-Mar-20 12:50N 54°46' W 169°50'2 0.2 1001.3 4.0
2015-Mar-20 01:50N 54°44' W 169°49'0 0.1 998.7 4.1
2015-Mar-19 22:50N 54°44' W 169°49'1 1.1 998.5 4.0
2015-Mar-19 21:50N 54°43' W 169°50'1 0.7 998.3 4.0
2015-Mar-19 19:50N 54°42' W 169°49'2 0.5 997.7 4.0
2015-Mar-19 15:50N 54°42' W 169°46'0 0.3 995.7 4.0
2015-Mar-19 14:50N 54°42' W 169°46'4 0.4 995.5 4.0
2015-Mar-19 06:50N 54°42' W 169°52'1 1.3 994.4 4.0
2015-Mar-19 05:50N 54°41' W 169°51'0 0.2 994.2 4.0
2015-Mar-19 04:50N 54°41' W 169°51'1 0.8 994.0 4.0
2015-Mar-19 03:50N 54°40' W 169°49'0 0.3 993.8 4.0
2015-Mar-19 02:50N 54°41' W 169°49'1 0.6 994.0 4.0
2015-Mar-19 01:50N 54°41' W 169°48'1 1.0 994.5 4.0
2015-Mar-19 00:50N 54°42' W 169°47'1 1.2 994.8 4.0
2015-Mar-18 23:50N 54°43' W 169°48'1 0.8 995.2 4.0
2015-Mar-18 22:50N 54°43' W 169°49'0 0.0 995.4 4.0
2015-Mar-18 22:00N 54°43' W 169°49'2 1.4 995.7 4.0
2015-Mar-18 20:50N 54°43' W 169°52'1 0.4 995.6 4.0
2015-Mar-18 18:50N 54°43' W 169°53'1 0.7 995.2 4.0
2015-Mar-18 17:50N 54°42' W 169°52'1 0.7 994.8 4.0
2015-Mar-18 16:50N 54°42' W 169°53'1 0.7 994.2 4.0
2015-Mar-18 15:50N 54°41' W 169°53'0 0.3 993.9 4.0
2015-Mar-18 14:50N 54°41' W 169°53'1 0.5 993.5 4.0
2015-Mar-18 13:50N 54°41' W 169°52'1 0.7 992.9 4.0
2015-Mar-18 12:50N 54°41' W 169°51'1 0.7 992.3 4.0
2015-Mar-18 10:50N 54°43' W 169°51'0 0.0 991.2 4.0
2015-Mar-18 09:50N 54°43' W 169°51'1 0.4 991.2 4.0
2015-Mar-18 07:50N 54°43' W 169°52'0 0.0 992.0 4.0
2015-Mar-18 06:50N 54°43' W 169°52'0 0.2 992.3 4.0
2015-Mar-18 04:50N 54°43' W 169°53'0 0.4 991.8 4.0
2015-Mar-18 03:50N 54°43' W 169°53'0 0.3 991.4 4.0
2015-Mar-18 02:50N 54°43' W 169°53'1 0.6 991.4 4.0
2015-Mar-18 01:50N 54°42' W 169°52'0 0.4 991.3 4.0
2015-Mar-18 00:50N 54°42' W 169°51'1 0.4 991.1 4.0
2015-Mar-17 22:50N 54°43' W 169°50'0 0.1 991.3 4.0
2015-Mar-17 20:50N 54°43' W 169°50'0 0.0 991.4 4.0
2015-Mar-17 18:50N 54°43' W 169°50'0 0.3 991.1 4.0
2015-Mar-17 17:50N 54°43' W 169°50'0 0.2 991.1 4.0
2015-Mar-17 16:50N 54°43' W 169°50'   991.2 4.0
Track history (hours):
 
Tides and Currents Weather Stations Pressure Air Temp Water Temp Dewpoint Dewpoint Depression Visibility Wind Speed Wind Dir Waves Ship Positions

Drifting buoy 46535

Last reported at 2015-Mar-27 16:50 UTC. Time now 2015-Mar-27 19:08 UTC.
Position N 55°04' W 171°01'.

Barometer 990.4 mb
Water temperature 4.3 ° C

Date/timePositionNaut miles runAvg speedWind from/ knotsBaromVisibWave heightAir tempDewpointWater temp
2015-Mar-27 16:50N 55°04' W 171°01'1 0.6 990.4 4.3
2015-Mar-27 15:50N 55°05' W 170°60'1 1.5 990.4 4.3
2015-Mar-27 14:50N 55°06' W 170°57'0 0.0 990.5 4.4
2015-Mar-27 13:50N 55°06' W 170°57'0 0.0 990.5 4.4
2015-Mar-27 12:50N 55°06' W 170°58'4 1.8 990.8 4.4
2015-Mar-27 10:50N 55°08' W 170°54'2 0.5 991.4 4.4
2015-Mar-27 06:50N 55°10' W 170°53'2 0.7 992.4 4.4
2015-Mar-27 03:50N 55°12' W 170°50'0 0.2 992.9 4.4
2015-Mar-27 02:50N 55°12' W 170°49'1 0.7 993.2 4.4
2015-Mar-27 01:50N 55°12' W 170°48'3 1.5 993.5 4.4
2015-Mar-26 23:50N 55°14' W 170°45'4 0.7 994.4 4.4
2015-Mar-26 17:50N 55°17' W 170°39'1 0.6 996.1 4.3
2015-Mar-26 16:50N 55°17' W 170°38'1 0.3 996.1 4.3
2015-Mar-26 14:50N 55°18' W 170°38'6 0.6 996.6 4.3
2015-Mar-26 04:50N 55°22' W 170°31'1 0.4 998.3 4.3
2015-Mar-26 02:50N 55°22' W 170°30'3 0.6 998.2 4.2
2015-Mar-25 22:00N 55°24' W 170°26'1 0.4 998.6 4.2
2015-Mar-25 19:50N 55°24' W 170°24'0 0.0 998.5 4.2
2015-Mar-25 18:50N 55°24' W 170°24'0 0.4 998.6 4.2
2015-Mar-25 17:50N 55°24' W 170°24'1 0.4 998.7 4.2
2015-Mar-25 15:50N 55°25' W 170°23'1 1.2 998.7 4.2
2015-Mar-25 14:50N 55°24' W 170°21'2 0.5 998.8 4.2
2015-Mar-25 10:50N 55°24' W 170°18'2 0.5 999.6 4.3
2015-Mar-25 06:50N 55°25' W 170°14'1 1.0 1000.4 4.4
2015-Mar-25 05:50N 55°25' W 170°13'1 0.3 1000.4 4.4
2015-Mar-25 02:50N 55°25' W 170°12'0 0.4 1000.7 4.4
2015-Mar-25 01:50N 55°25' W 170°11'0 0.2 1000.9 4.4
2015-Mar-25 00:50N 55°25' W 170°11'4 1.4 1000.9 4.4
2015-Mar-24 22:00N 55°23' W 170°05'0 0.0 1000.8 4.4
2015-Mar-24 19:50N 55°23' W 170°05'0 0.2 1000.5 4.5
2015-Mar-24 17:50N 55°23' W 170°04'1 0.8 1000.2 4.6
2015-Mar-24 16:50N 55°23' W 170°03'0 0.4 1000.1 4.6
2015-Mar-24 15:50N 55°22' W 170°02'0 0.4 1000.1 4.6
2015-Mar-24 14:50N 55°22' W 170°02'0 0.0 1000.4 4.6
2015-Mar-24 13:50N 55°22' W 170°02'4 0.4 1000.6 4.6
2015-Mar-24 03:50N 55°18' W 169°59'0 0.4 1002.4 4.6
2015-Mar-24 02:50N 55°18' W 169°58'2 0.5 1002.7 4.5
2015-Mar-23 23:50N 55°17' W 169°57'3 0.6 1003.5 4.4
2015-Mar-23 19:50N 55°15' W 169°54'0 0.0 1006.0 4.4
2015-Mar-23 18:50N 55°15' W 169°54'2 0.4 1006.5 4.4
2015-Mar-23 14:50N 55°14' W 169°53'0 0.5 1007.8 4.2
2015-Mar-23 13:50N 55°13' W 169°53'1 1.2 1008.4 4.2
2015-Mar-23 12:50N 55°12' W 169°53'4 0.6 1009.1 4.1
2015-Mar-23 04:50N 55°08' W 169°50'0 0.4 1009.8 4.3
2015-Mar-23 03:50N 55°08' W 169°50'0 0.2 1009.9 4.2
2015-Mar-23 02:50N 55°08' W 169°49'3 0.9 1010.1 4.2
2015-Mar-22 23:50N 55°05' W 169°49'0 0.0 1010.5 4.1
2015-Mar-22 21:50N 55°05' W 169°49'3 0.7 1010.6 4.0
2015-Mar-22 16:50N 55°02' W 169°48'1 0.9 1009.7 4.0
2015-Mar-22 15:50N 55°01' W 169°47'3 0.4 1009.5 4.0
2015-Mar-22 07:50N 54°58' W 169°48'3 0.9 1007.7 4.0
2015-Mar-22 04:50N 54°55' W 169°47'0 0.0 1006.6 4.0
2015-Mar-22 03:50N 54°55' W 169°47'0 0.5 1006.5 4.0
2015-Mar-22 02:50N 54°55' W 169°46'0 0.0 1006.2 4.0
2015-Mar-22 01:50N 54°55' W 169°46'1 0.3 1005.9 4.0
2015-Mar-21 23:50N 54°54' W 169°47'0 0.1 1005.7 4.0
2015-Mar-21 20:50N 54°54' W 169°47'2 0.4 1005.4 4.0
2015-Mar-21 15:50N 54°52' W 169°48'1 0.2 1004.1 4.0
2015-Mar-21 12:50N 54°52' W 169°47'2 0.2 1003.7 4.0
2015-Mar-21 01:50N 54°49' W 169°47'1 0.7 1002.4 4.0
2015-Mar-21 00:50N 54°49' W 169°48'1 0.8 1002.4 4.0
2015-Mar-20 23:50N 54°48' W 169°47'1 0.4 1002.5 4.0
2015-Mar-20 20:50N 54°47' W 169°47'0 0.1 1002.7 4.0
2015-Mar-20 15:50N 54°46' W 169°47'1 0.6 1001.5 4.0
2015-Mar-20 13:50N 54°46' W 169°49'0 0.4 1001.3 4.0
2015-Mar-20 12:50N 54°46' W 169°50'2 0.2 1001.3 4.0
2015-Mar-20 01:50N 54°44' W 169°49'0 0.1 998.7 4.1
2015-Mar-19 22:50N 54°44' W 169°49'1 1.1 998.5 4.0
2015-Mar-19 21:50N 54°43' W 169°50'1 0.7 998.3 4.0
2015-Mar-19 19:50N 54°42' W 169°49'2 0.5 997.7 4.0
2015-Mar-19 15:50N 54°42' W 169°46'0 0.3 995.7 4.0
2015-Mar-19 14:50N 54°42' W 169°46'4 0.4 995.5 4.0
2015-Mar-19 06:50N 54°42' W 169°52'1 1.3 994.4 4.0
2015-Mar-19 05:50N 54°41' W 169°51'0 0.2 994.2 4.0
2015-Mar-19 04:50N 54°41' W 169°51'1 0.8 994.0 4.0
2015-Mar-19 03:50N 54°40' W 169°49'0 0.3 993.8 4.0
2015-Mar-19 02:50N 54°41' W 169°49'1 0.6 994.0 4.0
2015-Mar-19 01:50N 54°41' W 169°48'1 1.0 994.5 4.0
2015-Mar-19 00:50N 54°42' W 169°47'1 1.2 994.8 4.0
2015-Mar-18 23:50N 54°43' W 169°48'1 0.8 995.2 4.0
2015-Mar-18 22:50N 54°43' W 169°49'0 0.0 995.4 4.0
2015-Mar-18 22:00N 54°43' W 169°49'2 1.4 995.7 4.0
2015-Mar-18 20:50N 54°43' W 169°52'1 0.4 995.6 4.0
2015-Mar-18 18:50N 54°43' W 169°53'1 0.7 995.2 4.0
2015-Mar-18 17:50N 54°42' W 169°52'1 0.7 994.8 4.0
2015-Mar-18 16:50N 54°42' W 169°53'1 0.7 994.2 4.0
2015-Mar-18 15:50N 54°41' W 169°53'0 0.3 993.9 4.0
2015-Mar-18 14:50N 54°41' W 169°53'1 0.5 993.5 4.0
2015-Mar-18 13:50N 54°41' W 169°52'1 0.7 992.9 4.0
2015-Mar-18 12:50N 54°41' W 169°51'1 0.7 992.3 4.0
2015-Mar-18 10:50N 54°43' W 169°51'0 0.0 991.2 4.0
2015-Mar-18 09:50N 54°43' W 169°51'1 0.4 991.2 4.0
2015-Mar-18 07:50N 54°43' W 169°52'0 0.0 992.0 4.0
2015-Mar-18 06:50N 54°43' W 169°52'0 0.2 992.3 4.0
2015-Mar-18 04:50N 54°43' W 169°53'0 0.4 991.8 4.0
2015-Mar-18 03:50N 54°43' W 169°53'0 0.3 991.4 4.0
2015-Mar-18 02:50N 54°43' W 169°53'1 0.6 991.4 4.0
2015-Mar-18 01:50N 54°42' W 169°52'0 0.4 991.3 4.0
2015-Mar-18 00:50N 54°42' W 169°51'1 0.4 991.1 4.0
2015-Mar-17 22:50N 54°43' W 169°50'0 0.1 991.3 4.0
2015-Mar-17 20:50N 54°43' W 169°50'0 0.0 991.4 4.0
2015-Mar-17 18:50N 54°43' W 169°50'0 0.3 991.1 4.0
2015-Mar-17 17:50N 54°43' W 169°50'0 0.2 991.1 4.0
2015-Mar-17 16:50N 54°43' W 169°50'   991.2 4.0

Dump ship's entire track history